sensor_id;sensor_type;location;lat;lon;timestamp;temperature;humidity
8709;DHT22;4391;48.678;9.280;2023-02-19T00:00:09;10.80;1.00
8709;DHT22;4391;48.678;9.280;2023-02-19T00:02:38;10.80;1.00
8709;DHT22;4391;48.678;9.280;2023-02-19T00:05:07;10.80;1.00
8709;DHT22;4391;48.678;9.280;2023-02-19T00:07:33;10.80;1.00
8709;DHT22;4391;48.678;9.280;2023-02-19T00:10:00;10.70;1.00
8709;DHT22;4391;48.678;9.280;2023-02-19T00:12:27;10.80;1.00
8709;DHT22;4391;48.678;9.280;2023-02-19T00:14:54;10.80;1.00
8709;DHT22;4391;48.678;9.280;2023-02-19T00:17:22;10.80;1.00
8709;DHT22;4391;48.678;9.280;2023-02-19T00:19:48;10.80;1.00
8709;DHT22;4391;48.678;9.280;2023-02-19T00:22:17;10.70;1.00
8709;DHT22;4391;48.678;9.280;2023-02-19T00:24:43;10.80;1.00
8709;DHT22;4391;48.678;9.280;2023-02-19T00:27:10;10.80;1.00
8709;DHT22;4391;48.678;9.280;2023-02-19T00:29:37;10.80;1.00
8709;DHT22;4391;48.678;9.280;2023-02-19T00:32:04;10.70;1.00
8709;DHT22;4391;48.678;9.280;2023-02-19T00:34:30;10.80;1.00
8709;DHT22;4391;48.678;9.280;2023-02-19T00:36:57;10.80;99.90
8709;DHT22;4391;48.678;9.280;2023-02-19T00:39:25;10.70;99.90
8709;DHT22;4391;48.678;9.280;2023-02-19T00:41:52;10.70;1.00
8709;DHT22;4391;48.678;9.280;2023-02-19T00:44:19;10.70;1.00
8709;DHT22;4391;48.678;9.280;2023-02-19T00:46:46;10.70;1.00
8709;DHT22;4391;48.678;9.280;2023-02-19T00:49:16;10.70;1.00
8709;DHT22;4391;48.678;9.280;2023-02-19T00:51:43;10.70;1.00
8709;DHT22;4391;48.678;9.280;2023-02-19T00:54:11;10.70;1.00
8709;DHT22;4391;48.678;9.280;2023-02-19T00:56:39;10.70;1.00
8709;DHT22;4391;48.678;9.280;2023-02-19T00:59:06;10.70;1.00
8709;DHT22;4391;48.678;9.280;2023-02-19T01:01:33;10.70;1.00
8709;DHT22;4391;48.678;9.280;2023-02-19T01:04:00;10.70;1.00
8709;DHT22;4391;48.678;9.280;2023-02-19T01:06:27;10.70;1.00
8709;DHT22;4391;48.678;9.280;2023-02-19T01:08:56;10.70;1.00
8709;DHT22;4391;48.678;9.280;2023-02-19T01:11:23;10.70;1.00
8709;DHT22;4391;48.678;9.280;2023-02-19T01:13:56;10.70;1.00
8709;DHT22;4391;48.678;9.280;2023-02-19T01:16:23;10.70;1.00
8709;DHT22;4391;48.678;9.280;2023-02-19T01:18:50;10.70;1.00
8709;DHT22;4391;48.678;9.280;2023-02-19T01:21:19;10.60;1.00
8709;DHT22;4391;48.678;9.280;2023-02-19T01:23:46;10.60;1.00
8709;DHT22;4391;48.678;9.280;2023-02-19T01:26:15;10.60;1.00
8709;DHT22;4391;48.678;9.280;2023-02-19T01:28:42;10.60;1.00
8709;DHT22;4391;48.678;9.280;2023-02-19T01:31:12;10.60;1.00
8709;DHT22;4391;48.678;9.280;2023-02-19T01:33:41;10.60;1.00
8709;DHT22;4391;48.678;9.280;2023-02-19T01:36:09;10.60;1.00
8709;DHT22;4391;48.678;9.280;2023-02-19T01:38:36;10.60;1.00
8709;DHT22;4391;48.678;9.280;2023-02-19T01:41:05;10.60;1.00
8709;DHT22;4391;48.678;9.280;2023-02-19T01:43:33;10.60;1.00
8709;DHT22;4391;48.678;9.280;2023-02-19T01:46:00;10.60;1.00
8709;DHT22;4391;48.678;9.280;2023-02-19T01:48:31;10.50;1.00
8709;DHT22;4391;48.678;9.280;2023-02-19T01:51:05;10.40;1.00
8709;DHT22;4391;48.678;9.280;2023-02-19T01:53:36;10.20;1.00
8709;DHT22;4391;48.678;9.280;2023-02-19T01:56:04;10.10;1.00
8709;DHT22;4391;48.678;9.280;2023-02-19T01:58:33;10.00;1.00
8709;DHT22;4391;48.678;9.280;2023-02-19T02:01:03;9.90;1.00
8709;DHT22;4391;48.678;9.280;2023-02-19T02:03:34;10.00;1.00
8709;DHT22;4391;48.678;9.280;2023-02-19T02:06:06;10.00;1.00
8709;DHT22;4391;48.678;9.280;2023-02-19T02:08:34;10.00;1.00
8709;DHT22;4391;48.678;9.280;2023-02-19T02:11:19;10.00;1.00
8709;DHT22;4391;48.678;9.280;2023-02-19T02:13:46;10.10;1.00
8709;DHT22;4391;48.678;9.280;2023-02-19T02:16:21;10.10;1.00
8709;DHT22;4391;48.678;9.280;2023-02-19T02:19:04;10.20;1.00
8709;DHT22;4391;48.678;9.280;2023-02-19T02:21:59;10.20;1.00
8709;DHT22;4391;48.678;9.280;2023-02-19T02:24:40;10.20;1.00
8709;DHT22;4391;48.678;9.280;2023-02-19T02:27:30;10.20;1.00
8709;DHT22;4391;48.678;9.280;2023-02-19T02:32:53;10.20;1.00
8709;DHT22;4391;48.678;9.280;2023-02-19T02:35:23;10.20;1.00
8709;DHT22;4391;48.678;9.280;2023-02-19T02:37:55;10.20;1.00
8709;DHT22;4391;48.678;9.280;2023-02-19T02:40:23;10.10;1.00
8709;DHT22;4391;48.678;9.280;2023-02-19T02:42:50;10.10;1.00
8709;DHT22;4391;48.678;9.280;2023-02-19T02:45:31;10.10;1.00
8709;DHT22;4391;48.678;9.280;2023-02-19T02:48:10;10.10;1.00
8709;DHT22;4391;48.678;9.280;2023-02-19T02:50:42;10.10;1.00
8709;DHT22;4391;48.678;9.280;2023-02-19T02:53:13;10.10;1.00
8709;DHT22;4391;48.678;9.280;2023-02-19T02:55:59;10.00;1.00
8709;DHT22;4391;48.678;9.280;2023-02-19T02:58:27;10.00;1.00
8709;DHT22;4391;48.678;9.280;2023-02-19T03:01:00;10.00;1.00
8709;DHT22;4391;48.678;9.280;2023-02-19T03:03:49;10.00;1.00
8709;DHT22;4391;48.678;9.280;2023-02-19T03:06:17;10.00;1.00
8709;DHT22;4391;48.678;9.280;2023-02-19T03:08:48;10.00;1.00
8709;DHT22;4391;48.678;9.280;2023-02-19T03:11:16;10.00;1.00
8709;DHT22;4391;48.678;9.280;2023-02-19T03:14:04;10.00;1.00
8709;DHT22;4391;48.678;9.280;2023-02-19T03:16:54;10.00;1.00
8709;DHT22;4391;48.678;9.280;2023-02-19T03:19:45;10.00;1.00
8709;DHT22;4391;48.678;9.280;2023-02-19T03:22:15;10.00;1.00
8709;DHT22;4391;48.678;9.280;2023-02-19T03:24:48;9.90;1.00
8709;DHT22;4391;48.678;9.280;2023-02-19T03:27:34;9.90;1.00
8709;DHT22;4391;48.678;9.280;2023-02-19T03:30:06;9.90;1.00
8709;DHT22;4391;48.678;9.280;2023-02-19T03:32:39;9.90;1.00
8709;DHT22;4391;48.678;9.280;2023-02-19T03:35:10;9.90;1.00
8709;DHT22;4391;48.678;9.280;2023-02-19T03:37:41;9.80;3.70
8709;DHT22;4391;48.678;9.280;2023-02-19T03:40:10;9.70;17.30
8709;DHT22;4391;48.678;9.280;2023-02-19T03:42:42;9.60;27.50
8709;DHT22;4391;48.678;9.280;2023-02-19T03:45:31;9.60;37.30
8709;DHT22;4391;48.678;9.280;2023-02-19T03:48:18;9.50;42.50
8709;DHT22;4391;48.678;9.280;2023-02-19T03:50:49;9.50;45.00
8709;DHT22;4391;48.678;9.280;2023-02-19T03:53:24;9.50;43.50
8709;DHT22;4391;48.678;9.280;2023-02-19T03:56:01;9.50;39.80
8709;DHT22;4391;48.678;9.280;2023-02-19T03:58:34;9.40;38.80
8709;DHT22;4391;48.678;9.280;2023-02-19T04:01:07;9.50;31.60
8709;DHT22;4391;48.678;9.280;2023-02-19T04:03:39;9.40;26.90
8709;DHT22;4391;48.678;9.280;2023-02-19T04:06:10;9.40;31.80
8709;DHT22;4391;48.678;9.280;2023-02-19T04:08:39;9.40;33.30
8709;DHT22;4391;48.678;9.280;2023-02-19T04:11:09;9.40;37.20
8709;DHT22;4391;48.678;9.280;2023-02-19T04:13:40;9.30;42.50
8709;DHT22;4391;48.678;9.280;2023-02-19T04:16:12;9.30;47.30
8709;DHT22;4391;48.678;9.280;2023-02-19T04:18:45;9.30;50.30
8709;DHT22;4391;48.678;9.280;2023-02-19T04:21:12;9.30;47.50
8709;DHT22;4391;48.678;9.280;2023-02-19T04:23:42;9.30;44.70
8709;DHT22;4391;48.678;9.280;2023-02-19T04:26:10;9.20;44.20
8709;DHT22;4391;48.678;9.280;2023-02-19T04:28:38;9.20;46.30
8709;DHT22;4391;48.678;9.280;2023-02-19T04:31:05;9.30;36.90
8709;DHT22;4391;48.678;9.280;2023-02-19T04:33:32;9.30;32.60
8709;DHT22;4391;48.678;9.280;2023-02-19T04:36:00;9.30;29.90
8709;DHT22;4391;48.678;9.280;2023-02-19T04:38:27;9.30;27.40
8709;DHT22;4391;48.678;9.280;2023-02-19T04:40:54;9.30;16.80
8709;DHT22;4391;48.678;9.280;2023-02-19T04:43:21;9.30;11.00
8709;DHT22;4391;48.678;9.280;2023-02-19T04:45:48;9.40;2.30
8709;DHT22;4391;48.678;9.280;2023-02-19T04:48:14;9.40;1.00
8709;DHT22;4391;48.678;9.280;2023-02-19T04:50:41;9.40;1.00
8709;DHT22;4391;48.678;9.280;2023-02-19T04:53:09;9.40;1.00
8709;DHT22;4391;48.678;9.280;2023-02-19T04:55:37;9.40;1.00
8709;DHT22;4391;48.678;9.280;2023-02-19T04:58:04;9.50;1.00
8709;DHT22;4391;48.678;9.280;2023-02-19T05:00:31;9.50;1.00
8709;DHT22;4391;48.678;9.280;2023-02-19T05:02:58;9.50;1.00
8709;DHT22;4391;48.678;9.280;2023-02-19T05:05:25;9.50;1.00
8709;DHT22;4391;48.678;9.280;2023-02-19T05:07:52;9.50;1.00
8709;DHT22;4391;48.678;9.280;2023-02-19T05:10:20;9.50;1.00
8709;DHT22;4391;48.678;9.280;2023-02-19T05:12:47;9.50;1.00
8709;DHT22;4391;48.678;9.280;2023-02-19T05:15:14;9.50;1.00
8709;DHT22;4391;48.678;9.280;2023-02-19T05:17:41;9.50;1.00
8709;DHT22;4391;48.678;9.280;2023-02-19T05:20:08;9.40;1.00
8709;DHT22;4391;48.678;9.280;2023-02-19T05:22:35;9.40;1.00
8709;DHT22;4391;48.678;9.280;2023-02-19T05:25:02;9.40;1.00
8709;DHT22;4391;48.678;9.280;2023-02-19T05:27:31;9.40;1.00
8709;DHT22;4391;48.678;9.280;2023-02-19T05:29:58;9.40;1.00
8709;DHT22;4391;48.678;9.280;2023-02-19T05:32:24;9.40;1.00
8709;DHT22;4391;48.678;9.280;2023-02-19T05:34:51;9.40;1.00
8709;DHT22;4391;48.678;9.280;2023-02-19T05:37:18;9.40;1.00
8709;DHT22;4391;48.678;9.280;2023-02-19T05:39:45;9.30;1.00
8709;DHT22;4391;48.678;9.280;2023-02-19T05:42:12;9.40;1.00
8709;DHT22;4391;48.678;9.280;2023-02-19T05:44:41;9.30;1.00
8709;DHT22;4391;48.678;9.280;2023-02-19T05:47:08;9.30;1.00
8709;DHT22;4391;48.678;9.280;2023-02-19T05:49:35;9.40;1.00
8709;DHT22;4391;48.678;9.280;2023-02-19T05:52:01;9.30;1.00
8709;DHT22;4391;48.678;9.280;2023-02-19T05:54:28;9.30;1.00
8709;DHT22;4391;48.678;9.280;2023-02-19T05:56:55;9.30;1.00
8709;DHT22;4391;48.678;9.280;2023-02-19T05:59:24;9.30;1.00
8709;DHT22;4391;48.678;9.280;2023-02-19T06:01:53;9.30;1.00
8709;DHT22;4391;48.678;9.280;2023-02-19T06:04:21;9.30;1.00
8709;DHT22;4391;48.678;9.280;2023-02-19T06:06:48;9.30;1.00
8709;DHT22;4391;48.678;9.280;2023-02-19T06:09:15;9.30;1.00
8709;DHT22;4391;48.678;9.280;2023-02-19T06:11:42;9.30;1.00
8709;DHT22;4391;48.678;9.280;2023-02-19T06:14:10;9.30;1.00
8709;DHT22;4391;48.678;9.280;2023-02-19T06:16:37;9.30;1.00
8709;DHT22;4391;48.678;9.280;2023-02-19T06:19:05;9.30;1.00
8709;DHT22;4391;48.678;9.280;2023-02-19T06:21:32;9.20;1.00
8709;DHT22;4391;48.678;9.280;2023-02-19T06:24:04;9.30;1.00
8709;DHT22;4391;48.678;9.280;2023-02-19T06:26:30;9.20;1.00
8709;DHT22;4391;48.678;9.280;2023-02-19T06:28:57;9.20;1.00
8709;DHT22;4391;48.678;9.280;2023-02-19T06:31:24;9.10;19.80
8709;DHT22;4391;48.678;9.280;2023-02-19T06:33:51;8.90;52.70
8709;DHT22;4391;48.678;9.280;2023-02-19T06:36:21;8.80;84.00
8709;DHT22;4391;48.678;9.280;2023-02-19T06:38:48;8.70;93.30
8709;DHT22;4391;48.678;9.280;2023-02-19T06:41:16;8.50;99.90
8709;DHT22;4391;48.678;9.280;2023-02-19T06:43:42;8.40;99.90
8709;DHT22;4391;48.678;9.280;2023-02-19T06:46:11;8.40;96.10
8709;DHT22;4391;48.678;9.280;2023-02-19T06:48:39;8.40;87.50
8709;DHT22;4391;48.678;9.280;2023-02-19T06:51:08;8.40;54.70
8709;DHT22;4391;48.678;9.280;2023-02-19T06:53:36;8.40;8.60
8709;DHT22;4391;48.678;9.280;2023-02-19T06:56:05;8.50;3.90
8709;DHT22;4391;48.678;9.280;2023-02-19T06:58:33;8.40;1.00
8709;DHT22;4391;48.678;9.280;2023-02-19T07:01:00;8.40;1.00
8709;DHT22;4391;48.678;9.280;2023-02-19T07:03:27;8.40;1.00
8709;DHT22;4391;48.678;9.280;2023-02-19T07:05:54;8.50;1.00
8709;DHT22;4391;48.678;9.280;2023-02-19T07:08:21;8.50;1.00
8709;DHT22;4391;48.678;9.280;2023-02-19T07:10:54;8.60;1.00
8709;DHT22;4391;48.678;9.280;2023-02-19T07:13:21;8.60;1.00
8709;DHT22;4391;48.678;9.280;2023-02-19T07:15:48;8.70;1.00
8709;DHT22;4391;48.678;9.280;2023-02-19T07:18:15;8.70;1.00
8709;DHT22;4391;48.678;9.280;2023-02-19T07:20:42;8.70;1.00
8709;DHT22;4391;48.678;9.280;2023-02-19T07:23:09;8.70;1.00
8709;DHT22;4391;48.678;9.280;2023-02-19T07:25:36;8.80;1.00
8709;DHT22;4391;48.678;9.280;2023-02-19T07:28:05;8.80;1.00
8709;DHT22;4391;48.678;9.280;2023-02-19T07:30:32;8.80;1.00
8709;DHT22;4391;48.678;9.280;2023-02-19T07:32:58;8.80;1.00
8709;DHT22;4391;48.678;9.280;2023-02-19T07:35:26;8.80;1.00
8709;DHT22;4391;48.678;9.280;2023-02-19T07:37:53;8.80;1.00
8709;DHT22;4391;48.678;9.280;2023-02-19T07:40:20;8.90;1.00
8709;DHT22;4391;48.678;9.280;2023-02-19T07:42:46;8.90;1.00
8709;DHT22;4391;48.678;9.280;2023-02-19T07:45:15;8.90;1.00
8709;DHT22;4391;48.678;9.280;2023-02-19T07:47:42;8.90;1.00
8709;DHT22;4391;48.678;9.280;2023-02-19T07:50:09;8.90;1.00
8709;DHT22;4391;48.678;9.280;2023-02-19T07:52:36;8.90;1.00
8709;DHT22;4391;48.678;9.280;2023-02-19T07:55:03;9.00;99.90
8709;DHT22;4391;48.678;9.280;2023-02-19T07:57:30;9.00;99.90
8709;DHT22;4391;48.678;9.280;2023-02-19T08:00:04;9.00;99.90
8709;DHT22;4391;48.678;9.280;2023-02-19T08:02:32;9.10;13.80
8709;DHT22;4391;48.678;9.280;2023-02-19T08:05:17;9.20;1.00
8709;DHT22;4391;48.678;9.280;2023-02-19T08:07:44;9.20;99.90
8709;DHT22;4391;48.678;9.280;2023-02-19T08:10:10;9.30;1.00
8709;DHT22;4391;48.678;9.280;2023-02-19T08:12:54;9.30;1.00
8709;DHT22;4391;48.678;9.280;2023-02-19T08:15:39;9.30;1.00
8709;DHT22;4391;48.678;9.280;2023-02-19T08:18:08;9.40;24.30
8709;DHT22;4391;48.678;9.280;2023-02-19T08:20:38;9.40;20.80
8709;DHT22;4391;48.678;9.280;2023-02-19T08:23:06;9.40;1.00
8709;DHT22;4391;48.678;9.280;2023-02-19T08:25:33;9.60;99.90
8709;DHT22;4391;48.678;9.280;2023-02-19T08:28:00;9.60;99.90
8709;DHT22;4391;48.678;9.280;2023-02-19T08:30:27;9.60;99.90
8709;DHT22;4391;48.678;9.280;2023-02-19T08:32:57;9.60;1.00
8709;DHT22;4391;48.678;9.280;2023-02-19T08:35:26;9.60;1.00
8709;DHT22;4391;48.678;9.280;2023-02-19T08:37:54;9.60;99.90
8709;DHT22;4391;48.678;9.280;2023-02-19T08:40:21;9.50;99.90
8709;DHT22;4391;48.678;9.280;2023-02-19T08:42:48;9.60;33.10
8709;DHT22;4391;48.678;9.280;2023-02-19T08:45:16;9.50;99.90
8709;DHT22;4391;48.678;9.280;2023-02-19T08:47:44;9.50;1.00
8709;DHT22;4391;48.678;9.280;2023-02-19T08:50:11;9.40;99.90
8709;DHT22;4391;48.678;9.280;2023-02-19T08:52:39;9.30;99.90
8709;DHT22;4391;48.678;9.280;2023-02-19T08:55:07;9.20;99.90
8709;DHT22;4391;48.678;9.280;2023-02-19T08:57:34;9.20;99.90
8709;DHT22;4391;48.678;9.280;2023-02-19T09:00:02;9.20;99.90
8709;DHT22;4391;48.678;9.280;2023-02-19T09:02:29;9.30;1.00
8709;DHT22;4391;48.678;9.280;2023-02-19T09:04:56;9.40;99.90
8709;DHT22;4391;48.678;9.280;2023-02-19T09:07:23;9.50;99.90
8709;DHT22;4391;48.678;9.280;2023-02-19T09:09:52;9.60;99.90
8709;DHT22;4391;48.678;9.280;2023-02-19T09:12:18;9.70;99.90
8709;DHT22;4391;48.678;9.280;2023-02-19T09:14:45;9.60;6.60
8709;DHT22;4391;48.678;9.280;2023-02-19T09:17:12;9.60;1.00
8709;DHT22;4391;48.678;9.280;2023-02-19T09:19:39;9.70;1.00
8709;DHT22;4391;48.678;9.280;2023-02-19T09:22:06;9.80;99.90
8709;DHT22;4391;48.678;9.280;2023-02-19T09:24:33;9.90;99.90
8709;DHT22;4391;48.678;9.280;2023-02-19T09:27:01;10.00;99.90
8709;DHT22;4391;48.678;9.280;2023-02-19T09:29:28;10.10;99.90
8709;DHT22;4391;48.678;9.280;2023-02-19T09:31:56;10.30;5.00
8709;DHT22;4391;48.678;9.280;2023-02-19T09:34:23;10.40;1.00
8709;DHT22;4391;48.678;9.280;2023-02-19T09:36:51;10.50;99.90
8709;DHT22;4391;48.678;9.280;2023-02-19T09:39:18;10.70;1.00
8709;DHT22;4391;48.678;9.280;2023-02-19T09:41:46;10.70;99.90
8709;DHT22;4391;48.678;9.280;2023-02-19T09:44:23;10.80;1.00
8709;DHT22;4391;48.678;9.280;2023-02-19T09:46:51;10.70;99.90
8709;DHT22;4391;48.678;9.280;2023-02-19T09:49:22;10.60;54.40
8709;DHT22;4391;48.678;9.280;2023-02-19T09:51:52;10.50;99.90
8709;DHT22;4391;48.678;9.280;2023-02-19T09:54:22;10.50;99.90
8709;DHT22;4391;48.678;9.280;2023-02-19T09:56:51;10.50;52.70
8709;DHT22;4391;48.678;9.280;2023-02-19T09:59:22;10.50;99.90
8709;DHT22;4391;48.678;9.280;2023-02-19T10:01:54;10.60;99.90
8709;DHT22;4391;48.678;9.280;2023-02-19T10:04:23;10.50;80.30
8709;DHT22;4391;48.678;9.280;2023-02-19T10:06:50;10.40;99.90
8709;DHT22;4391;48.678;9.280;2023-02-19T10:09:21;10.50;21.30
8709;DHT22;4391;48.678;9.280;2023-02-19T10:11:51;10.40;15.50
8709;DHT22;4391;48.678;9.280;2023-02-19T10:14:24;10.40;1.00
8709;DHT22;4391;48.678;9.280;2023-02-19T10:16:53;10.40;7.30
8709;DHT22;4391;48.678;9.280;2023-02-19T10:19:22;10.30;51.70
8709;DHT22;4391;48.678;9.280;2023-02-19T10:21:49;10.40;17.30
8709;DHT22;4391;48.678;9.280;2023-02-19T10:24:19;10.50;25.30
8709;DHT22;4391;48.678;9.280;2023-02-19T10:26:46;10.50;1.00
8709;DHT22;4391;48.678;9.280;2023-02-19T10:29:15;10.40;20.90
8709;DHT22;4391;48.678;9.280;2023-02-19T10:31:43;10.30;1.00
8709;DHT22;4391;48.678;9.280;2023-02-19T10:34:17;10.30;56.30
8709;DHT22;4391;48.678;9.280;2023-02-19T10:36:46;10.20;21.10
8709;DHT22;4391;48.678;9.280;2023-02-19T10:39:37;10.20;99.90
8709;DHT22;4391;48.678;9.280;2023-02-19T10:42:13;10.30;99.90
8709;DHT22;4391;48.678;9.280;2023-02-19T10:44:42;10.50;97.00
8709;DHT22;4391;48.678;9.280;2023-02-19T10:47:17;10.60;18.30
8709;DHT22;4391;48.678;9.280;2023-02-19T10:49:46;10.90;1.00
8709;DHT22;4391;48.678;9.280;2023-02-19T10:52:19;11.00;1.00
8709;DHT22;4391;48.678;9.280;2023-02-19T10:54:50;11.20;1.00
8709;DHT22;4391;48.678;9.280;2023-02-19T10:57:25;11.60;1.00
8709;DHT22;4391;48.678;9.280;2023-02-19T10:59:57;11.90;1.00
8709;DHT22;4391;48.678;9.280;2023-02-19T11:02:27;12.00;1.00
8709;DHT22;4391;48.678;9.280;2023-02-19T11:05:15;12.20;1.00
8709;DHT22;4391;48.678;9.280;2023-02-19T11:07:45;12.20;99.90
8709;DHT22;4391;48.678;9.280;2023-02-19T11:10:25;12.50;99.90
8709;DHT22;4391;48.678;9.280;2023-02-19T11:12:56;12.80;99.90
8709;DHT22;4391;48.678;9.280;2023-02-19T11:15:27;13.40;99.90
8709;DHT22;4391;48.678;9.280;2023-02-19T11:17:58;13.60;99.90
8709;DHT22;4391;48.678;9.280;2023-02-19T11:20:25;14.60;99.90
8709;DHT22;4391;48.678;9.280;2023-02-19T11:22:57;14.80;99.90
8709;DHT22;4391;48.678;9.280;2023-02-19T11:25:26;14.50;99.90
8709;DHT22;4391;48.678;9.280;2023-02-19T11:27:55;13.70;99.90
8709;DHT22;4391;48.678;9.280;2023-02-19T11:30:34;13.20;99.90
8709;DHT22;4391;48.678;9.280;2023-02-19T11:33:23;12.80;99.90
8709;DHT22;4391;48.678;9.280;2023-02-19T11:35:55;12.50;99.90
8709;DHT22;4391;48.678;9.280;2023-02-19T11:38:24;12.40;99.90
8709;DHT22;4391;48.678;9.280;2023-02-19T11:40:56;12.20;99.90
8709;DHT22;4391;48.678;9.280;2023-02-19T11:43:39;12.10;99.90
8709;DHT22;4391;48.678;9.280;2023-02-19T11:46:16;12.10;99.90
8709;DHT22;4391;48.678;9.280;2023-02-19T11:48:56;11.80;99.90
8709;DHT22;4391;48.678;9.280;2023-02-19T11:51:47;11.80;99.90
8709;DHT22;4391;48.678;9.280;2023-02-19T11:54:45;11.70;1.00
8709;DHT22;4391;48.678;9.280;2023-02-19T11:57:34;11.70;1.00
8709;DHT22;4391;48.678;9.280;2023-02-19T12:00:20;11.60;99.90
8709;DHT22;4391;48.678;9.280;2023-02-19T12:03:12;11.40;99.90
8709;DHT22;4391;48.678;9.280;2023-02-19T12:05:58;11.50;1.00
8709;DHT22;4391;48.678;9.280;2023-02-19T12:11:48;11.60;99.90
8709;DHT22;4391;48.678;9.280;2023-02-19T12:14:47;11.60;99.90
8709;DHT22;4391;48.678;9.280;2023-02-19T12:17:24;11.80;99.90
8709;DHT22;4391;48.678;9.280;2023-02-19T12:20:05;12.00;99.90
8709;DHT22;4391;48.678;9.280;2023-02-19T12:22:41;12.10;99.90
8709;DHT22;4391;48.678;9.280;2023-02-19T12:25:20;12.10;99.90
8709;DHT22;4391;48.678;9.280;2023-02-19T12:28:15;12.00;99.90
8709;DHT22;4391;48.678;9.280;2023-02-19T12:31:21;11.70;99.90
8709;DHT22;4391;48.678;9.280;2023-02-19T12:37:00;12.30;99.90
8709;DHT22;4391;48.678;9.280;2023-02-19T12:39:35;12.50;99.90
8709;DHT22;4391;48.678;9.280;2023-02-19T12:42:09;12.60;99.90
8709;DHT22;4391;48.678;9.280;2023-02-19T12:44:41;13.10;99.90
8709;DHT22;4391;48.678;9.280;2023-02-19T12:47:16;13.30;99.90
8709;DHT22;4391;48.678;9.280;2023-02-19T12:49:47;13.20;99.90
8709;DHT22;4391;48.678;9.280;2023-02-19T12:52:18;12.90;99.90
8709;DHT22;4391;48.678;9.280;2023-02-19T12:54:51;12.70;99.90
8709;DHT22;4391;48.678;9.280;2023-02-19T12:57:21;12.50;99.90
8709;DHT22;4391;48.678;9.280;2023-02-19T12:59:52;12.40;99.90
8709;DHT22;4391;48.678;9.280;2023-02-19T13:02:24;12.50;99.90
8709;DHT22;4391;48.678;9.280;2023-02-19T13:04:57;12.40;99.90
8709;DHT22;4391;48.678;9.280;2023-02-19T13:07:29;12.40;99.90
8709;DHT22;4391;48.678;9.280;2023-02-19T13:10:01;12.40;99.90
8709;DHT22;4391;48.678;9.280;2023-02-19T13:12:33;12.60;99.90
8709;DHT22;4391;48.678;9.280;2023-02-19T13:15:06;12.70;99.90
8709;DHT22;4391;48.678;9.280;2023-02-19T13:17:42;12.80;99.90
8709;DHT22;4391;48.678;9.280;2023-02-19T13:20:17;12.90;99.90
8709;DHT22;4391;48.678;9.280;2023-02-19T13:22:49;12.80;99.90
8709;DHT22;4391;48.678;9.280;2023-02-19T13:25:59;12.60;99.90
8709;DHT22;4391;48.678;9.280;2023-02-19T13:28:46;12.30;99.90
8709;DHT22;4391;48.678;9.280;2023-02-19T13:31:28;12.10;99.90
8709;DHT22;4391;48.678;9.280;2023-02-19T13:34:04;12.00;99.90
8709;DHT22;4391;48.678;9.280;2023-02-19T13:36:37;12.00;99.90
8709;DHT22;4391;48.678;9.280;2023-02-19T13:39:05;11.90;99.90
8709;DHT22;4391;48.678;9.280;2023-02-19T13:41:37;12.00;99.90
8709;DHT22;4391;48.678;9.280;2023-02-19T13:44:11;12.00;99.90
8709;DHT22;4391;48.678;9.280;2023-02-19T13:46:43;11.80;99.90
8709;DHT22;4391;48.678;9.280;2023-02-19T13:52:33;11.80;99.90
8709;DHT22;4391;48.678;9.280;2023-02-19T13:58:36;12.10;99.90
8709;DHT22;4391;48.678;9.280;2023-02-19T14:01:05;12.00;99.90
8709;DHT22;4391;48.678;9.280;2023-02-19T14:03:46;11.90;99.90
8709;DHT22;4391;48.678;9.280;2023-02-19T14:06:15;11.70;99.90
8709;DHT22;4391;48.678;9.280;2023-02-19T14:08:47;11.60;99.90
8709;DHT22;4391;48.678;9.280;2023-02-19T14:11:15;11.60;99.90
8709;DHT22;4391;48.678;9.280;2023-02-19T14:13:57;11.40;99.90
8709;DHT22;4391;48.678;9.280;2023-02-19T14:16:57;11.20;99.90
8709;DHT22;4391;48.678;9.280;2023-02-19T14:19:59;11.00;99.90
8709;DHT22;4391;48.678;9.280;2023-02-19T14:22:50;11.00;99.90
8709;DHT22;4391;48.678;9.280;2023-02-19T14:25:49;11.10;99.90
8709;DHT22;4391;48.678;9.280;2023-02-19T14:28:40;11.10;99.90
8709;DHT22;4391;48.678;9.280;2023-02-19T14:31:19;11.10;99.90
8709;DHT22;4391;48.678;9.280;2023-02-19T14:33:48;11.20;99.90
8709;DHT22;4391;48.678;9.280;2023-02-19T14:36:30;11.20;99.90
8709;DHT22;4391;48.678;9.280;2023-02-19T14:38:59;11.20;99.90
8709;DHT22;4391;48.678;9.280;2023-02-19T14:41:30;11.20;99.90
8709;DHT22;4391;48.678;9.280;2023-02-19T14:43:59;11.20;99.90
8709;DHT22;4391;48.678;9.280;2023-02-19T14:46:30;11.20;99.90
8709;DHT22;4391;48.678;9.280;2023-02-19T14:49:03;10.90;99.90
8709;DHT22;4391;48.678;9.280;2023-02-19T14:51:34;10.90;99.90
8709;DHT22;4391;48.678;9.280;2023-02-19T14:54:09;10.70;1.00
8709;DHT22;4391;48.678;9.280;2023-02-19T14:56:38;10.70;1.00
8709;DHT22;4391;48.678;9.280;2023-02-19T14:59:07;10.70;1.00
8709;DHT22;4391;48.678;9.280;2023-02-19T15:01:37;10.80;1.00
8709;DHT22;4391;48.678;9.280;2023-02-19T15:04:04;10.60;1.00
8709;DHT22;4391;48.678;9.280;2023-02-19T15:06:33;10.60;1.00
8709;DHT22;4391;48.678;9.280;2023-02-19T15:09:04;10.50;1.00
8709;DHT22;4391;48.678;9.280;2023-02-19T15:11:33;10.40;1.00
8709;DHT22;4391;48.678;9.280;2023-02-19T15:14:03;10.40;1.00
8709;DHT22;4391;48.678;9.280;2023-02-19T15:16:33;10.40;1.00
8709;DHT22;4391;48.678;9.280;2023-02-19T15:19:04;10.40;1.00
8709;DHT22;4391;48.678;9.280;2023-02-19T15:21:34;10.40;1.00
8709;DHT22;4391;48.678;9.280;2023-02-19T15:24:04;10.30;1.00
8709;DHT22;4391;48.678;9.280;2023-02-19T15:26:34;10.30;1.00
8709;DHT22;4391;48.678;9.280;2023-02-19T15:29:03;10.20;1.00
8709;DHT22;4391;48.678;9.280;2023-02-19T15:31:30;10.30;31.60
8709;DHT22;4391;48.678;9.280;2023-02-19T15:33:57;10.20;15.90
8709;DHT22;4391;48.678;9.280;2023-02-19T15:36:30;10.20;5.70
8709;DHT22;4391;48.678;9.280;2023-02-19T15:39:00;10.10;68.50
8709;DHT22;4391;48.678;9.280;2023-02-19T15:41:30;10.10;99.90
8709;DHT22;4391;48.678;9.280;2023-02-19T15:44:19;10.00;99.90
8709;DHT22;4391;48.678;9.280;2023-02-19T15:46:48;10.00;99.90
8709;DHT22;4391;48.678;9.280;2023-02-19T15:49:18;9.90;99.90
8709;DHT22;4391;48.678;9.280;2023-02-19T15:51:50;9.90;99.90
8709;DHT22;4391;48.678;9.280;2023-02-19T15:54:25;9.90;99.90
8709;DHT22;4391;48.678;9.280;2023-02-19T15:56:55;9.80;1.00
8709;DHT22;4391;48.678;9.280;2023-02-19T15:59:26;9.70;1.00
8709;DHT22;4391;48.678;9.280;2023-02-19T16:01:53;9.70;1.00
8709;DHT22;4391;48.678;9.280;2023-02-19T16:04:21;9.70;1.00
8709;DHT22;4391;48.678;9.280;2023-02-19T16:06:55;9.70;99.90
8709;DHT22;4391;48.678;9.280;2023-02-19T16:09:26;9.70;1.00
8709;DHT22;4391;48.678;9.280;2023-02-19T16:11:56;9.70;76.20
8709;DHT22;4391;48.678;9.280;2023-02-19T16:14:28;9.70;99.90
8709;DHT22;4391;48.678;9.280;2023-02-19T16:16:57;9.60;99.90
8709;DHT22;4391;48.678;9.280;2023-02-19T16:19:26;9.60;99.90
8709;DHT22;4391;48.678;9.280;2023-02-19T16:21:55;9.70;99.90
8709;DHT22;4391;48.678;9.280;2023-02-19T16:24:28;9.60;99.90
8709;DHT22;4391;48.678;9.280;2023-02-19T16:26:56;9.60;1.00
8709;DHT22;4391;48.678;9.280;2023-02-19T16:29:25;9.60;99.90
8709;DHT22;4391;48.678;9.280;2023-02-19T16:31:55;9.50;99.90
8709;DHT22;4391;48.678;9.280;2023-02-19T16:34:40;9.40;13.10
8709;DHT22;4391;48.678;9.280;2023-02-19T16:37:35;9.40;99.90
8709;DHT22;4391;48.678;9.280;2023-02-19T16:43:36;9.20;1.00
8709;DHT22;4391;48.678;9.280;2023-02-19T16:46:07;9.10;99.90
8709;DHT22;4391;48.678;9.280;2023-02-19T16:48:34;9.10;1.00
8709;DHT22;4391;48.678;9.280;2023-02-19T16:51:04;9.00;1.00
8709;DHT22;4391;48.678;9.280;2023-02-19T16:53:33;9.00;1.00
8709;DHT22;4391;48.678;9.280;2023-02-19T16:56:00;8.90;38.60
8709;DHT22;4391;48.678;9.280;2023-02-19T16:58:27;8.90;99.90
8709;DHT22;4391;48.678;9.280;2023-02-19T17:00:54;8.90;99.90
8709;DHT22;4391;48.678;9.280;2023-02-19T17:03:23;8.90;99.90